createdAt,value
2022-10-06T00:01:06.147Z,23.33
2022-10-06T00:03:33.225Z,20.45
2022-10-06T00:06:01.997Z,21.20
2022-10-06T00:08:31.092Z,21.65
2022-10-06T00:10:58.245Z,21.48
2022-10-06T00:13:25.700Z,21.67
2022-10-06T00:15:52.799Z,21.88
2022-10-06T00:18:20.215Z,22.13
2022-10-06T00:20:57.015Z,20.63
2022-10-06T00:23:24.505Z,20.35
2022-10-06T00:25:51.477Z,20.90
2022-10-06T00:28:18.490Z,22.58
2022-10-06T00:30:46.647Z,21.45
2022-10-06T00:33:16.129Z,22.13
2022-10-06T00:35:43.946Z,21.20
2022-10-06T00:38:16.439Z,20.70
2022-10-06T00:40:48.705Z,20.73
2022-10-06T00:43:40.474Z,20.83
2022-10-06T00:46:09.920Z,20.38
2022-10-06T00:48:37.078Z,20.98
2022-10-06T00:51:05.296Z,18.95
2022-10-06T00:53:32.911Z,19.27
2022-10-06T00:56:00.090Z,21.52
2022-10-06T00:58:27.455Z,19.42
2022-10-06T01:00:55.629Z,19.90
2022-10-06T01:03:34.339Z,19.60
2022-10-06T01:06:02.336Z,18.48
2022-10-06T01:08:30.147Z,19.08
2022-10-06T01:10:57.469Z,18.98
2022-10-06T01:13:26.539Z,17.23
2022-10-06T01:16:23.343Z,17.95
2022-10-06T01:18:51.835Z,18.80
2022-10-06T01:21:40.793Z,17.85
2022-10-06T01:24:07.759Z,16.73
2022-10-06T01:26:37.913Z,16.38
2022-10-06T01:29:04.893Z,18.13
2022-10-06T01:31:31.896Z,17.27
2022-10-06T01:33:58.886Z,18.25
2022-10-06T01:36:25.789Z,18.98
2022-10-06T01:38:52.723Z,17.52
2022-10-06T01:41:19.760Z,17.67
2022-10-06T01:43:46.678Z,17.15
2022-10-06T01:46:13.773Z,16.95
2022-10-06T01:48:40.761Z,18.25
2022-10-06T01:51:09.363Z,17.50
2022-10-06T01:53:36.324Z,19.58
2022-10-06T01:56:03.235Z,19.02
2022-10-06T01:58:30.734Z,20.08
2022-10-06T02:00:57.860Z,20.50
2022-10-06T02:03:24.882Z,19.05
2022-10-06T02:05:51.817Z,19.25
2022-10-06T02:08:18.662Z,19.23
2022-10-06T02:10:45.580Z,18.60
2022-10-06T02:13:12.425Z,17.20
2022-10-06T02:15:39.314Z,18.38
2022-10-06T02:18:06.373Z,19.00
2022-10-06T02:20:33.805Z,19.55
2022-10-06T02:23:00.697Z,20.38
2022-10-06T02:25:27.617Z,19.73
2022-10-06T02:27:55.222Z,20.52
2022-10-06T02:30:22.132Z,20.17
2022-10-06T02:32:49.031Z,20.73
2022-10-06T02:35:15.941Z,22.02
2022-10-06T02:37:42.803Z,20.45
2022-10-06T02:40:10.127Z,20.90
2022-10-06T02:42:38.064Z,21.10
2022-10-06T02:45:07.041Z,21.60
2022-10-06T02:47:35.855Z,19.88
2022-10-06T02:50:05.461Z,20.92
2022-10-06T02:52:37.433Z,20.90
2022-10-06T02:55:05.895Z,20.23
2022-10-06T02:57:32.888Z,21.42
2022-10-06T03:00:00.467Z,21.13
2022-10-06T03:02:30.345Z,21.50
2022-10-06T03:04:57.333Z,21.60
2022-10-06T03:07:24.312Z,22.85
2022-10-06T03:09:51.195Z,23.27
2022-10-06T03:12:18.086Z,22.50
2022-10-06T03:14:44.960Z,22.08
2022-10-06T03:17:12.054Z,24.02
2022-10-06T03:19:39.184Z,21.88
2022-10-06T03:22:06.478Z,23.05
2022-10-06T03:24:33.425Z,22.13
2022-10-06T03:27:00.410Z,21.75
2022-10-06T03:29:28.085Z,24.13
2022-10-06T03:31:55.012Z,22.08
2022-10-06T03:34:21.948Z,21.48
2022-10-06T03:36:48.911Z,19.65
2022-10-06T03:39:15.844Z,21.00
2022-10-06T03:41:42.771Z,23.98
2022-10-06T03:44:09.666Z,20.75
2022-10-06T03:46:37.553Z,23.05
2022-10-06T03:49:05.436Z,19.33
2022-10-06T03:51:40.754Z,20.13
2022-10-06T03:54:10.842Z,19.65
2022-10-06T03:56:40.801Z,18.00
2022-10-06T03:59:10.510Z,18.40
2022-10-06T04:01:45.868Z,16.05
2022-10-06T04:04:13.649Z,15.15
2022-10-06T04:06:42.973Z,15.23
2022-10-06T04:09:15.380Z,13.60
2022-10-06T04:11:44.173Z,15.35
2022-10-06T04:14:13.803Z,12.45
2022-10-06T04:16:43.158Z,11.40
2022-10-06T04:19:12.229Z,12.38
2022-10-06T04:21:40.971Z,12.13
2022-10-06T04:24:09.016Z,10.88
2022-10-06T04:26:42.255Z,10.50
2022-10-06T04:29:09.198Z,9.48
2022-10-06T04:31:39.056Z,12.23
2022-10-06T04:34:07.160Z,9.13
2022-10-06T04:36:38.307Z,9.77
2022-10-06T04:39:06.094Z,9.35
2022-10-06T04:41:38.722Z,8.90
2022-10-06T04:44:06.889Z,8.50
2022-10-06T04:46:43.119Z,8.77
2022-10-06T04:49:17.975Z,7.72
2022-10-06T04:51:47.184Z,7.82
2022-10-06T04:54:14.440Z,7.32
2022-10-06T04:56:41.304Z,7.25
2022-10-06T04:59:08.213Z,7.53
2022-10-06T05:01:36.888Z,7.57
2022-10-06T05:04:06.199Z,7.22
2022-10-06T05:06:36.406Z,7.95
2022-10-06T05:09:07.132Z,6.88
2022-10-06T05:11:34.705Z,7.07
2022-10-06T05:14:01.738Z,8.02
2022-10-06T05:16:30.698Z,7.15
2022-10-06T05:18:58.430Z,6.38
2022-10-06T05:21:28.401Z,6.07
2022-10-06T05:23:55.298Z,5.90
2022-10-06T05:26:24.199Z,6.30
2022-10-06T05:28:51.263Z,5.75
2022-10-06T05:31:21.379Z,6.05
2022-10-06T05:33:48.839Z,5.60
2022-10-06T05:36:17.787Z,5.35
2022-10-06T05:38:45.774Z,5.30
2022-10-06T05:41:17.802Z,5.80
2022-10-06T05:43:45.475Z,5.72
2022-10-06T05:46:20.577Z,5.93
2022-10-06T05:48:49.454Z,5.63
2022-10-06T05:51:17.901Z,4.97
2022-10-06T05:53:45.654Z,4.30
2022-10-06T05:56:17.522Z,5.50
2022-10-06T05:58:46.935Z,4.97
2022-10-06T06:01:25.788Z,4.50
2022-10-06T06:04:04.466Z,4.88
2022-10-06T06:06:35.518Z,4.63
2022-10-06T06:09:13.072Z,3.85
2022-10-06T06:11:42.909Z,4.10
2022-10-06T06:14:14.396Z,3.95
2022-10-06T06:16:42.863Z,4.05
2022-10-06T06:19:11.797Z,3.50
2022-10-06T06:21:39.133Z,4.03
2022-10-06T06:24:06.965Z,3.95
2022-10-06T06:26:36.926Z,3.88
2022-10-06T06:29:05.537Z,3.25
2022-10-06T06:31:40.557Z,3.50
2022-10-06T06:34:08.020Z,3.50
2022-10-06T06:36:41.099Z,3.80
2022-10-06T06:42:55.046Z,3.65
2022-10-06T06:49:12.080Z,2.83
2022-10-06T06:51:41.793Z,3.22
2022-10-06T06:54:10.032Z,3.00
2022-10-06T06:56:38.915Z,3.25
2022-10-06T06:59:09.029Z,3.72
2022-10-06T07:01:36.462Z,3.17
2022-10-06T07:04:04.063Z,3.05
2022-10-06T07:06:31.721Z,3.25
2022-10-06T07:09:00.096Z,3.40
2022-10-06T07:11:28.631Z,3.13
2022-10-06T07:14:01.737Z,2.95
2022-10-06T07:16:48.796Z,3.13
2022-10-06T07:19:35.582Z,3.53
2022-10-06T07:22:33.858Z,2.88
2022-10-06T07:25:11.706Z,3.33
2022-10-06T07:27:51.160Z,2.90
2022-10-06T07:30:21.758Z,2.83
2022-10-06T07:32:50.360Z,3.33
2022-10-06T07:35:22.280Z,3.30
2022-10-06T07:41:36.844Z,3.53
2022-10-06T07:44:07.983Z,3.80
2022-10-06T07:46:35.214Z,3.33
2022-10-06T07:49:02.174Z,3.53
2022-10-06T07:55:23.061Z,2.65
2022-10-06T07:57:51.236Z,2.60
2022-10-06T08:00:22.574Z,2.60
2022-10-06T08:02:49.939Z,2.60
2022-10-06T08:05:17.045Z,2.10
2022-10-06T08:07:43.957Z,1.90
2022-10-06T08:10:10.879Z,1.50
2022-10-06T08:12:38.113Z,1.40
2022-10-06T08:21:29.023Z,0.80
2022-10-06T08:23:58.210Z,0.93
2022-10-06T08:26:27.239Z,0.93
2022-10-06T08:28:57.732Z,1.95
2022-10-06T08:31:24.844Z,1.00
2022-10-06T08:33:56.826Z,0.98
2022-10-06T08:36:30.841Z,1.00
2022-10-06T08:38:58.679Z,1.00
2022-10-06T08:41:33.462Z,1.10
2022-10-06T08:44:22.730Z,1.20
2022-10-06T08:47:09.192Z,1.70
2022-10-06T08:49:41.175Z,0.95
2022-10-06T08:52:26.543Z,1.10
2022-10-06T08:55:24.229Z,1.00
2022-10-06T08:58:21.766Z,1.08
2022-10-06T09:04:32.277Z,1.65
2022-10-06T09:07:12.390Z,1.42
2022-10-06T09:10:03.485Z,1.00
2022-10-06T09:12:43.253Z,1.25
2022-10-06T09:15:42.874Z,1.10
2022-10-06T09:19:03.455Z,1.10
2022-10-06T09:21:40.122Z,1.50
2022-10-06T09:24:15.495Z,1.17
2022-10-06T09:26:45.512Z,1.30
2022-10-06T09:29:13.386Z,1.20
2022-10-06T09:31:44.440Z,1.95
2022-10-06T09:34:20.452Z,1.15
2022-10-06T09:37:03.302Z,1.70
2022-10-06T09:39:38.793Z,1.10
2022-10-06T09:42:29.762Z,1.25
2022-10-06T09:45:29.103Z,1.17
2022-10-06T09:48:24.654Z,1.10
2022-10-06T09:51:14.380Z,1.40
2022-10-06T09:53:42.865Z,1.40
2022-10-06T09:56:21.466Z,1.23
2022-10-06T09:59:00.537Z,1.10
2022-10-06T10:01:29.557Z,1.90
2022-10-06T10:07:37.507Z,2.00
2022-10-06T10:10:19.784Z,1.75
2022-10-06T10:13:13.711Z,1.38
2022-10-06T10:15:52.565Z,1.38
2022-10-06T10:18:26.559Z,1.10
2022-10-06T10:21:08.608Z,1.13
2022-10-06T10:23:42.795Z,1.27
2022-10-06T10:26:09.718Z,1.45
2022-10-06T10:29:21.952Z,1.27
2022-10-06T10:32:12.336Z,1.20
2022-10-06T10:35:08.771Z,1.27
2022-10-06T10:37:47.688Z,1.10
2022-10-06T10:40:37.543Z,1.42
2022-10-06T10:43:21.690Z,1.10
2022-10-06T10:46:04.312Z,1.40
2022-10-06T10:48:40.584Z,1.27
2022-10-06T10:51:30.995Z,1.70
2022-10-06T10:54:15.429Z,2.22
2022-10-06T10:56:53.096Z,1.13
2022-10-06T10:59:35.379Z,1.40
2022-10-06T11:02:13.053Z,1.17
2022-10-06T11:08:59.294Z,1.33
2022-10-06T11:14:18.163Z,1.23
2022-10-06T11:16:51.483Z,1.55
2022-10-06T11:19:46.901Z,1.40
2022-10-06T11:22:47.194Z,2.00
2022-10-06T11:25:19.907Z,1.42
2022-10-06T11:28:10.513Z,1.48
2022-10-06T11:31:23.071Z,1.20
2022-10-06T11:33:58.356Z,1.25
2022-10-06T11:36:41.119Z,1.80
2022-10-06T11:39:25.397Z,1.30
2022-10-06T11:42:14.444Z,1.60
2022-10-06T11:44:45.625Z,1.50
2022-10-06T11:47:28.158Z,1.45
2022-10-06T11:50:01.459Z,1.25
2022-10-06T11:52:28.677Z,1.70
2022-10-06T11:55:16.009Z,1.42
2022-10-06T11:58:29.931Z,1.42
2022-10-06T12:00:56.468Z,1.50
2022-10-06T12:03:47.473Z,2.05
2022-10-06T12:06:42.835Z,1.60
2022-10-06T12:09:29.376Z,1.10
2022-10-06T12:12:23.195Z,1.20
2022-10-06T12:18:14.848Z,1.25
2022-10-06T12:21:14.692Z,1.52
2022-10-06T12:23:59.234Z,1.58
2022-10-06T12:29:05.229Z,1.52
2022-10-06T12:31:53.651Z,1.40
2022-10-06T12:34:43.438Z,1.23
2022-10-06T12:37:29.049Z,1.65
2022-10-06T12:40:33.370Z,1.50
2022-10-06T12:43:21.140Z,1.20
2022-10-06T12:45:58.795Z,1.80
2022-10-06T12:48:37.555Z,1.33
2022-10-06T12:51:11.284Z,1.30
2022-10-06T12:53:51.258Z,1.55
2022-10-06T12:56:28.603Z,1.80
2022-10-06T12:58:56.099Z,1.25
2022-10-06T13:01:24.300Z,1.23
2022-10-06T13:03:52.583Z,1.45
2022-10-06T13:06:23.481Z,1.75
2022-10-06T13:09:13.003Z,1.50
2022-10-06T13:11:40.373Z,2.33
2022-10-06T13:14:14.031Z,1.35
2022-10-06T13:16:44.940Z,1.50
2022-10-06T13:19:17.137Z,1.25
2022-10-06T13:21:44.945Z,3.22
2022-10-06T13:24:14.548Z,1.40
2022-10-06T13:26:42.153Z,1.40
2022-10-06T13:29:26.069Z,1.58
2022-10-06T13:31:55.139Z,1.60
2022-10-06T13:34:33.408Z,1.40
2022-10-06T13:37:01.411Z,1.42
2022-10-06T13:39:32.274Z,1.58
2022-10-06T13:42:16.375Z,1.88
2022-10-06T13:45:05.027Z,1.30
2022-10-06T13:47:32.319Z,1.40
2022-10-06T13:50:20.059Z,1.73
2022-10-06T13:52:48.686Z,1.52
2022-10-06T13:55:27.173Z,2.67
2022-10-06T13:57:56.769Z,1.30
2022-10-06T14:00:26.385Z,1.67
2022-10-06T14:03:05.809Z,2.40
2022-10-06T14:05:44.079Z,1.40
2022-10-06T14:08:10.960Z,1.65
2022-10-06T14:10:40.943Z,1.98
2022-10-06T14:13:20.685Z,1.20
2022-10-06T14:16:21.674Z,1.25
2022-10-06T14:18:59.048Z,1.55
2022-10-06T14:21:40.079Z,1.90
2022-10-06T14:24:16.088Z,1.80
2022-10-06T14:26:50.820Z,1.45
2022-10-06T14:29:18.874Z,1.85
2022-10-06T14:31:46.653Z,1.50
2022-10-06T14:34:15.601Z,1.40
2022-10-06T14:36:45.653Z,1.60
2022-10-06T14:39:14.251Z,3.05
2022-10-06T14:41:41.436Z,2.03
2022-10-06T14:44:11.332Z,1.45
2022-10-06T14:46:43.232Z,2.58
2022-10-06T14:49:14.097Z,1.42
2022-10-06T14:51:42.846Z,1.38
2022-10-06T14:54:10.960Z,1.83
2022-10-06T14:56:39.454Z,1.52
2022-10-06T14:59:09.963Z,1.52
2022-10-06T15:01:39.964Z,1.95
2022-10-06T15:04:12.964Z,2.00
2022-10-06T15:06:58.648Z,2.40
2022-10-06T15:09:26.160Z,2.25
2022-10-06T15:11:54.312Z,1.98
2022-10-06T15:14:24.273Z,1.83
2022-10-06T15:16:51.810Z,1.90
2022-10-06T15:19:18.888Z,2.35
2022-10-06T15:21:46.249Z,1.67
2022-10-06T15:24:15.574Z,2.13
2022-10-06T15:27:01.726Z,2.67
2022-10-06T15:29:29.349Z,2.55
2022-10-06T15:31:58.687Z,2.00
2022-10-06T15:34:28.309Z,1.70
2022-10-06T15:36:56.422Z,1.50
2022-10-06T15:39:30.056Z,1.85
2022-10-06T15:41:57.998Z,1.75
2022-10-06T15:44:25.182Z,1.60
2022-10-06T15:46:56.879Z,1.35
2022-10-06T15:49:29.909Z,1.70
2022-10-06T15:51:59.747Z,1.77
2022-10-06T15:54:37.588Z,1.90
2022-10-06T15:57:08.601Z,2.03
2022-10-06T15:59:37.425Z,2.15
2022-10-06T16:02:16.135Z,1.75
2022-10-06T16:04:44.349Z,1.67
2022-10-06T16:07:16.942Z,2.83
2022-10-06T16:09:46.062Z,2.08
2022-10-06T16:12:18.363Z,2.00
2022-10-06T16:14:46.070Z,1.95
2022-10-06T16:17:13.953Z,1.92
2022-10-06T16:19:41.329Z,2.00
2022-10-06T16:22:11.256Z,3.15
2022-10-06T16:24:38.226Z,2.38
2022-10-06T16:27:05.184Z,2.65
2022-10-06T16:29:32.269Z,2.30
2022-10-06T16:32:02.186Z,2.22
2022-10-06T16:34:31.418Z,1.92
2022-10-06T16:36:58.716Z,2.28
2022-10-06T16:39:25.662Z,2.60
2022-10-06T16:41:54.107Z,1.73
2022-10-06T16:44:21.107Z,2.47
2022-10-06T16:46:48.224Z,2.17
2022-10-06T16:49:15.422Z,3.20
2022-10-06T16:51:45.788Z,2.38
2022-10-06T16:54:14.609Z,2.67
2022-10-06T16:56:46.903Z,2.10
2022-10-06T16:59:16.284Z,2.60
2022-10-06T17:01:43.390Z,2.28
2022-10-06T17:04:19.847Z,2.08
2022-10-06T17:06:55.049Z,2.03
2022-10-06T17:09:27.043Z,2.00
2022-10-06T17:11:59.189Z,2.95
2022-10-06T17:14:26.972Z,2.92
2022-10-06T17:16:56.314Z,2.20
2022-10-06T17:19:25.666Z,2.70
2022-10-06T17:21:58.614Z,3.00
2022-10-06T17:24:28.464Z,2.40
2022-10-06T17:26:56.835Z,2.35
2022-10-06T17:29:24.492Z,2.85
2022-10-06T17:31:59.001Z,3.10
2022-10-06T17:34:31.785Z,3.45
2022-10-06T17:36:59.826Z,2.83
2022-10-06T17:39:26.733Z,2.92
2022-10-06T17:41:54.391Z,2.70
2022-10-06T17:44:26.411Z,3.03
2022-10-06T17:46:58.642Z,2.85
2022-10-06T17:49:26.468Z,3.30
2022-10-06T17:51:54.814Z,2.83
2022-10-06T17:54:23.856Z,3.10
2022-10-06T17:56:53.618Z,3.25
2022-10-06T17:59:22.465Z,3.42
2022-10-06T18:01:51.406Z,4.13
2022-10-06T18:04:19.259Z,3.58
2022-10-06T18:06:47.505Z,3.28
2022-10-06T18:09:15.453Z,3.30
2022-10-06T18:11:44.397Z,3.72
2022-10-06T18:14:13.040Z,3.40
2022-10-06T18:16:52.131Z,3.53
2022-10-06T18:19:26.193Z,4.40
2022-10-06T18:21:56.587Z,4.15
2022-10-06T18:24:27.998Z,3.60
2022-10-06T18:30:42.070Z,3.70
2022-10-06T18:36:14.843Z,4.43
2022-10-06T18:38:44.793Z,3.55
2022-10-06T18:41:16.907Z,4.30
2022-10-06T18:43:44.520Z,6.45
2022-10-06T18:49:53.036Z,7.03
2022-10-06T18:52:21.029Z,6.38
2022-10-06T18:54:48.491Z,6.82
2022-10-06T18:57:15.435Z,6.40
2022-10-06T18:59:42.587Z,6.93
2022-10-06T19:02:11.738Z,5.28
2022-10-06T19:04:41.974Z,4.78
2022-10-06T19:07:09.370Z,4.82
2022-10-06T19:09:36.255Z,4.97
2022-10-06T19:12:03.255Z,5.57
2022-10-06T19:14:36.783Z,5.20
2022-10-06T19:17:12.802Z,4.87
2022-10-06T19:19:40.445Z,5.10
2022-10-06T19:22:07.414Z,5.38
2022-10-06T19:24:40.205Z,5.10
2022-10-06T19:27:12.826Z,6.88
2022-10-06T19:29:45.583Z,6.40
2022-10-06T19:32:16.298Z,7.13
2022-10-06T19:34:43.580Z,5.50
2022-10-06T19:37:10.684Z,5.28
2022-10-06T19:39:40.408Z,4.65
2022-10-06T19:42:27.367Z,5.10
2022-10-06T19:44:54.287Z,5.82
2022-10-06T19:47:21.251Z,4.25
2022-10-06T19:49:48.149Z,4.38
2022-10-06T19:52:15.587Z,4.30
2022-10-06T19:54:42.931Z,4.97
2022-10-06T19:57:11.673Z,3.90
2022-10-06T19:59:39.101Z,4.18
2022-10-06T20:02:10.345Z,3.17
2022-10-06T20:04:37.799Z,5.40
2022-10-06T20:07:04.858Z,3.65
2022-10-06T20:09:32.062Z,4.13
2022-10-06T20:11:59.889Z,3.35
2022-10-06T20:14:27.269Z,3.53
2022-10-06T20:16:55.551Z,3.42
2022-10-06T20:19:25.555Z,3.15
2022-10-06T20:21:53.071Z,3.17
2022-10-06T20:24:22.974Z,3.28
2022-10-06T20:26:50.946Z,3.65
2022-10-06T20:29:23.008Z,4.68
2022-10-06T20:31:52.112Z,3.30
2022-10-06T20:34:24.694Z,4.00
2022-10-06T20:36:55.928Z,3.40
2022-10-06T20:39:41.859Z,3.45
2022-10-06T20:42:14.730Z,2.95
2022-10-06T20:44:42.797Z,3.28
2022-10-06T20:47:10.877Z,4.82
2022-10-06T20:49:38.157Z,3.08
2022-10-06T20:52:06.341Z,3.20
2022-10-06T20:54:35.965Z,4.20
2022-10-06T20:57:05.707Z,3.25
2022-10-06T20:59:35.610Z,3.35
2022-10-06T21:02:03.282Z,3.45
2022-10-06T21:04:30.520Z,2.70
2022-10-06T21:06:57.901Z,3.30
2022-10-06T21:09:25.184Z,3.47
2022-10-06T21:11:52.300Z,2.92
2022-10-06T21:14:20.035Z,3.00
2022-10-06T21:16:48.466Z,2.83
2022-10-06T21:19:17.979Z,3.03
2022-10-06T21:21:49.910Z,2.65
2022-10-06T21:24:16.930Z,2.85
2022-10-06T21:26:44.041Z,2.95
2022-10-06T21:29:15.780Z,2.72
2022-10-06T21:31:44.171Z,2.75
2022-10-06T21:34:11.212Z,2.92
2022-10-06T21:36:38.893Z,2.90
2022-10-06T21:39:06.584Z,2.75
2022-10-06T21:41:41.082Z,3.10
2022-10-06T21:46:52.623Z,3.17
2022-10-06T21:49:21.797Z,2.75
2022-10-06T21:51:50.792Z,2.97
2022-10-06T21:54:18.703Z,2.92
2022-10-06T21:56:45.933Z,3.20
2022-10-06T21:59:13.283Z,2.63
2022-10-06T22:01:42.654Z,2.88
2022-10-06T22:04:10.210Z,3.33
2022-10-06T22:06:37.657Z,4.63
2022-10-06T22:09:07.238Z,2.70
2022-10-06T22:11:36.913Z,2.72
2022-10-06T22:14:06.366Z,3.55
2022-10-06T22:16:36.137Z,2.85
2022-10-06T22:19:05.742Z,2.63
2022-10-06T22:21:35.928Z,3.22
2022-10-06T22:24:08.527Z,2.60
2022-10-06T22:26:37.683Z,2.22
2022-10-06T22:29:07.825Z,2.90
2022-10-06T22:31:37.191Z,2.60
2022-10-06T22:34:07.497Z,3.75
2022-10-06T22:36:35.357Z,2.60
2022-10-06T22:39:02.532Z,2.55
2022-10-06T22:41:29.847Z,3.55
2022-10-06T22:43:58.400Z,2.67
2022-10-06T22:46:31.207Z,3.97
2022-10-06T22:48:58.662Z,2.78
2022-10-06T22:51:25.987Z,2.60
2022-10-06T22:53:58.499Z,3.80
2022-10-06T22:56:27.678Z,2.63
2022-10-06T22:58:54.907Z,2.40
2022-10-06T23:01:21.942Z,2.65
2022-10-06T23:03:49.175Z,2.40
2022-10-06T23:06:17.503Z,2.85
2022-10-06T23:08:44.851Z,2.97
2022-10-06T23:11:17.811Z,2.80
2022-10-06T23:13:45.264Z,2.28
2022-10-06T23:16:14.526Z,2.58
2022-10-06T23:18:42.908Z,2.38
2022-10-06T23:21:22.751Z,4.90
2022-10-06T23:23:52.339Z,2.40
2022-10-06T23:26:20.333Z,3.40
2022-10-06T23:28:52.211Z,3.17
2022-10-06T23:31:19.308Z,2.88
2022-10-06T23:33:46.446Z,2.58
2022-10-06T23:36:14.610Z,2.30
2022-10-06T23:38:42.607Z,2.40
2022-10-06T23:44:55.909Z,2.42
2022-10-06T23:47:22.865Z,2.63
2022-10-06T23:49:49.880Z,2.70
2022-10-06T23:52:16.972Z,2.55
2022-10-06T23:54:43.894Z,2.90
2022-10-06T23:57:10.808Z,2.65
2022-10-06T23:59:37.710Z,2.22
